Terminal Aerodrome Forecast
Issued by NWS Sioux Falls, SD

Home | Current Version | Previous Version | Graphics & Text | Print | Product List | Glossary On
Versions: 1 2 3 4 5 6 7 8 9 10 11 12 13 14 15 16 17
000
FTUS43 KFSD 262322
TAFFSD
TAF
KFSD 262322Z 2700/2724 15010KT P6SM SCT150
     FM270300 13007KT P6SM BKN150
     FM271500 15011KT P6SM VCSH SCT090 BKN120
     FM271800 14013G19KT P6SM BKN150
     FM272300 12013KT P6SM -SHRA SCT030 OVC110=

USA.gov is the U.S. government's official web portal to all federal, state and local government web resources and services.